Time;durP1;ratioP1;P1;durP2;ratioP2;P2;SDS_P1;SDS_P2;PMS_P1;PMS_P2;Temp;Humidity;BMP_temperature;BMP_pressure;BME280_temperature;BME280_humidity;BME280_pressure;Samples;Min_cycle;Max_cycle;Signal;HPM_P1;HPM_P2
2021/04/05 00:01:33;;;;;;;20.77;10.60;;;6.10;98.30;;;;;;4118844;28;20498;-80
2021/04/05 00:03:34;;;;;;;22.10;11.20;;;6.10;98.30;;;;;;4118001;28;20496;-80
2021/04/05 00:05:38;;;;;;;22.33;12.60;;;6.00;98.30;;;;;;4115569;28;20845;-80
2021/04/05 00:07:41;;;;;;;22.40;13.00;;;6.10;98.30;;;;;;4113824;28;21329;-80
2021/04/05 00:09:45;;;;;;;21.50;13.23;;;6.00;98.30;;;;;;4114234;28;20503;-79
2021/04/05 00:11:46;;;;;;;25.23;11.73;;;6.00;98.30;;;;;;4117764;28;20494;-80
2021/04/05 00:13:48;;;;;;;20.73;12.80;;;6.00;98.30;;;;;;4119424;28;20546;-80
2021/04/05 00:15:51;;;;;;;23.83;14.20;;;6.00;98.30;;;;;;4119010;28;20500;-79
2021/04/05 00:17:53;;;;;;;20.50;13.60;;;6.00;98.30;;;;;;4119997;28;20837;-80
2021/04/05 00:19:54;;;;;;;22.23;13.13;;;6.10;98.30;;;;;;4117029;28;21045;-80
2021/04/05 00:21:56;;;;;;;24.03;11.60;;;6.20;98.30;;;;;;4118059;28;20497;-80
2021/04/05 00:23:58;;;;;;;29.13;13.70;;;6.10;98.30;;;;;;4119302;28;20490;-80
2021/04/05 00:26:01;;;;;;;22.50;13.77;;;6.10;98.30;;;;;;4116662;28;20494;-80
2021/04/05 00:28:04;;;;;;;28.00;15.40;;;6.10;98.30;;;;;;4112776;28;20493;-80
2021/04/05 00:30:08;;;;;;;25.00;13.00;;;6.10;98.30;;;;;;4116467;28;20497;-80
2021/04/05 00:32:10;;;;;;;19.87;11.83;;;6.10;98.30;;;;;;4114111;28;20503;-80
2021/04/05 00:34:12;;;;;;;23.87;14.03;;;6.10;98.30;;;;;;4115314;28;20495;-80
2021/04/05 00:36:14;;;;;;;25.10;13.70;;;6.10;98.30;;;;;;4115759;28;20498;-79
2021/04/05 00:38:17;;;;;;;21.90;11.90;;;6.10;98.30;;;;;;4111608;28;21018;-80
2021/04/05 00:40:21;;;;;;;19.63;12.63;;;6.20;98.30;;;;;;4102084;28;20501;-80
2021/04/05 00:42:24;;;;;;;17.90;12.47;;;6.20;98.30;;;;;;4115589;28;20498;-80
2021/04/05 00:44:27;;;;;;;23.77;14.10;;;6.20;98.30;;;;;;4115553;28;20510;-80
2021/04/05 00:46:29;;;;;;;23.47;13.10;;;6.20;98.30;;;;;;4116257;28;20741;-80
2021/04/05 00:48:31;;;;;;;20.13;13.10;;;6.30;98.30;;;;;;4103120;28;20491;-80
2021/04/05 00:50:43;;;;;;;32.43;13.17;;;6.30;98.30;;;;;;4112555;28;20500;-80
2021/04/05 00:52:50;;;;;;;22.77;15.70;;;6.30;98.30;;;;;;4114264;28;21053;-80
2021/04/05 00:54:52;;;;;;;25.37;14.77;;;6.30;98.30;;;;;;4113215;28;20494;-80
2021/04/05 00:56:55;;;;;;;27.97;15.30;;;6.30;98.30;;;;;;4115623;28;20505;-80
2021/04/05 00:58:58;;;;;;;25.33;13.90;;;6.30;98.30;;;;;;4115657;28;20499;-80
2021/04/05 01:01:02;;;;;;;23.43;12.23;;;6.30;98.30;;;;;;4115450;28;20495;-80
2021/04/05 01:03:05;;;;;;;16.70;12.30;;;6.30;98.30;;;;;;4116889;28;20495;-80
2021/04/05 01:05:08;;;;;;;23.50;13.60;;;6.30;98.30;;;;;;4116603;28;20502;-80
2021/04/05 01:07:10;;;;;;;30.03;16.00;;;6.30;98.30;;;;;;4116570;28;20490;-80
2021/04/05 01:09:13;;;;;;;25.47;15.17;;;6.30;98.30;;;;;;4116034;28;21179;-80
2021/04/05 01:11:18;;;;;;;22.10;14.87;;;6.30;98.30;;;;;;4115804;28;20574;-80
2021/04/05 01:13:20;;;;;;;27.00;14.90;;;6.40;98.30;;;;;;4117811;28;20510;-80
2021/04/05 01:15:24;;;;;;;23.93;14.07;;;6.40;98.30;;;;;;4115134;28;21161;-80
2021/04/05 01:17:26;;;;;;;24.57;15.00;;;6.40;98.30;;;;;;4117194;28;20505;-80
2021/04/05 01:19:28;;;;;;;29.27;17.10;;;6.40;98.30;;;;;;4117170;28;20494;-80
2021/04/05 01:21:30;;;;;;;20.07;12.30;;;6.30;98.30;;;;;;4117082;28;20494;-80
2021/04/05 01:23:33;;;;;;;27.20;17.00;;;6.30;98.30;;;;;;4118392;28;20518;-80
2021/04/05 01:25:36;;;;;;;23.53;13.87;;;6.30;98.30;;;;;;4112375;28;20503;-80
2021/04/05 01:27:39;;;;;;;22.37;15.60;;;6.40;98.30;;;;;;4114806;28;20559;-80
2021/04/05 01:29:41;;;;;;;23.20;14.77;;;6.40;98.30;;;;;;4115796;28;20495;-80
2021/04/05 01:31:43;;;;;;;23.33;12.60;;;6.30;98.30;;;;;;4121067;28;20560;-80
2021/04/05 01:33:45;;;;;;;27.23;16.50;;;6.40;98.30;;;;;;4117080;28;20859;-80
2021/04/05 01:35:50;;;;;;;24.07;14.30;;;6.30;98.30;;;;;;4116761;28;20530;-80
2021/04/05 01:37:52;;;;;;;21.90;14.63;;;6.40;98.30;;;;;;4112316;28;20498;-80
2021/04/05 01:39:55;;;;;;;26.93;17.00;;;6.30;98.30;;;;;;4114612;28;20494;-80
2021/04/05 01:41:57;;;;;;;22.93;15.00;;;6.40;98.30;;;;;;4115745;28;20904;-80
2021/04/05 01:43:59;;;;;;;25.57;16.67;;;6.40;98.30;;;;;;4115732;28;20505;-80
2021/04/05 01:46:02;;;;;;;20.80;13.00;;;6.40;98.30;;;;;;4116418;28;20501;-80
2021/04/05 01:48:05;;;;;;;20.97;15.80;;;6.40;98.30;;;;;;4116263;28;21036;-80
2021/04/05 01:50:09;;;;;;;29.97;16.10;;;6.40;98.30;;;;;;4114638;28;20498;-80
2021/04/05 01:52:14;;;;;;;26.23;14.70;;;6.40;98.30;;;;;;4114542;28;20505;-80
2021/04/05 01:54:16;;;;;;;27.40;16.67;;;6.40;98.30;;;;;;4114724;28;20537;-80
2021/04/05 01:56:20;;;;;;;24.03;14.10;;;6.40;98.30;;;;;;4113695;28;20493;-80
2021/04/05 01:58:22;;;;;;;21.70;13.37;;;6.40;98.30;;;;;;4115531;28;20508;-80
2021/04/05 02:00:26;;;;;;;21.53;13.43;;;6.40;98.30;;;;;;4116370;28;20505;-80
2021/04/05 02:02:28;;;;;;;26.13;17.50;;;6.50;98.30;;;;;;4116043;28;21056;-81
2021/04/05 02:04:32;;;;;;;23.67;13.67;;;6.40;98.30;;;;;;4111167;28;20574;-80
2021/04/05 02:06:36;;;;;;;32.23;15.27;;;6.40;98.30;;;;;;4115540;28;20853;-80
2021/04/05 02:08:38;;;;;;;23.33;15.03;;;6.40;98.30;;;;;;4113903;28;21091;-80
2021/04/05 02:10:42;;;;;;;21.40;13.70;;;6.40;98.30;;;;;;4115173;28;20783;-79
2021/04/05 02:12:45;;;;;;;25.80;14.27;;;6.40;98.30;;;;;;4116467;28;20499;-80
2021/04/05 02:14:47;;;;;;;25.37;16.77;;;6.40;98.30;;;;;;4112455;28;20958;-80
2021/04/05 02:16:50;;;;;;;24.00;14.43;;;6.40;98.30;;;;;;4115999;28;20495;-80
2021/04/05 02:18:53;;;;;;;26.90;14.77;;;6.50;98.30;;;;;;4114940;28;20502;-80
2021/04/05 02:20:57;;;;;;;28.27;16.60;;;6.50;98.30;;;;;;4116489;28;20489;-80
2021/04/05 02:22:59;;;;;;;26.63;16.67;;;6.50;98.30;;;;;;4116014;28;20497;-81
2021/04/05 02:25:02;;;;;;;23.30;13.37;;;6.50;98.30;;;;;;4114991;28;20544;-80
2021/04/05 02:27:05;;;;;;;23.20;15.20;;;6.50;98.30;;;;;;4114907;28;20493;-80
2021/04/05 02:29:08;;;;;;;22.37;14.00;;;6.50;98.30;;;;;;4110463;28;20482;-80
2021/04/05 02:31:11;;;;;;;27.10;14.63;;;6.50;98.30;;;;;;4115889;28;20495;-80
2021/04/05 02:33:13;;;;;;;31.30;16.83;;;6.50;98.30;;;;;;4115723;28;20493;-80
2021/04/05 02:35:15;;;;;;;23.90;15.00;;;6.50;98.30;;;;;;4114652;28;20528;-80
2021/04/05 02:37:17;;;;;;;26.20;16.77;;;6.50;98.30;;;;;;4117398;28;20506;-79
2021/04/05 02:39:19;;;;;;;26.40;14.13;;;6.50;98.30;;;;;;4115416;28;20497;-80
2021/04/05 02:41:23;;;;;;;26.07;14.30;;;6.50;98.30;;;;;;4113498;28;20490;-80
2021/04/05 02:43:25;;;;;;;30.53;16.60;;;6.50;98.30;;;;;;4115211;28;20496;-79
2021/04/05 02:45:28;;;;;;;29.60;14.90;;;6.50;98.30;;;;;;4113637;28;20491;-80
2021/04/05 02:47:31;;;;;;;23.53;13.13;;;6.50;98.30;;;;;;4114664;28;21045;-80
2021/04/05 02:49:33;;;;;;;25.57;17.90;;;6.50;98.30;;;;;;4110398;28;20499;-80
2021/04/05 02:51:35;;;;;;;21.60;14.80;;;6.50;98.30;;;;;;4114221;28;20501;-80
2021/04/05 02:53:42;;;;;;;26.47;14.60;;;6.50;98.30;;;;;;4109485;28;20524;-79
2021/04/05 02:55:44;;;;;;;28.63;16.17;;;6.50;98.30;;;;;;4111140;28;20514;-80
2021/04/05 02:57:46;;;;;;;25.40;16.37;;;6.50;98.30;;;;;;4112372;28;20492;-80
2021/04/05 02:59:49;;;;;;;24.30;16.37;;;6.50;98.30;;;;;;4113085;28;21065;-80
2021/04/05 03:01:52;;;;;;;21.07;13.30;;;6.50;98.30;;;;;;4112807;28;20495;-80
2021/04/05 03:03:56;;;;;;;23.80;12.77;;;6.50;98.30;;;;;;4113763;28;20557;-80
2021/04/05 03:05:58;;;;;;;22.00;14.37;;;6.50;98.30;;;;;;4115199;28;20498;-79
2021/04/05 03:08:00;;;;;;;31.70;20.60;;;6.50;98.30;;;;;;4115541;28;20558;-81
2021/04/05 03:10:04;;;;;;;24.00;14.20;;;6.40;98.30;;;;;;4114804;28;20495;-80
2021/04/05 03:12:07;;;;;;;23.83;14.20;;;6.30;98.30;;;;;;4115218;28;20509;-80
2021/04/05 03:14:11;;;;;;;35.50;19.00;;;6.20;98.30;;;;;;4112254;28;20501;-80
2021/04/05 03:16:17;;;;;;;24.50;14.57;;;6.20;98.30;;;;;;4111390;28;20499;-80
2021/04/05 03:18:21;;;;;;;35.23;19.83;;;6.20;98.30;;;;;;4114037;28;20502;-80
2021/04/05 03:20:28;;;;;;;30.10;16.27;;;6.20;98.30;;;;;;4114572;28;20498;-80
2021/04/05 03:22:29;;;;;;;35.00;17.10;;;6.20;98.30;;;;;;4114147;28;21216;-80
2021/04/05 03:24:34;;;;;;;31.30;19.20;;;6.20;98.30;;;;;;4114998;28;20498;-80
2021/04/05 03:26:36;;;;;;;31.93;16.67;;;6.10;98.30;;;;;;4115920;28;20520;-80
2021/04/05 03:28:38;;;;;;;33.70;20.60;;;6.10;98.30;;;;;;4115974;28;20503;-80
2021/04/05 03:30:44;;;;;;;34.40;19.03;;;6.00;98.30;;;;;;4115574;28;20497;-80
2021/04/05 03:32:48;;;;;;;33.07;19.20;;;5.90;98.30;;;;;;4115041;28;20493;-80
2021/04/05 03:34:56;;;;;;;27.40;15.30;;;5.90;98.30;;;;;;4113388;28;20504;-80
2021/04/05 03:37:01;;;;;;;30.90;16.70;;;5.90;98.30;;;;;;4114110;28;20504;-80
2021/04/05 03:39:04;;;;;;;32.30;18.37;;;5.90;98.30;;;;;;4113051;28;20489;-80
2021/04/05 03:41:14;;;;;;;29.93;18.27;;;5.90;98.30;;;;;;4116157;28;20580;-80
2021/04/05 03:43:23;;;;;;;43.93;20.17;;;5.80;98.30;;;;;;4116026;28;20520;-79
2021/04/05 03:45:28;;;;;;;33.67;21.47;;;5.90;98.30;;;;;;4116731;28;20496;-80
2021/04/05 03:47:38;;;;;;;35.03;19.10;;;5.90;98.30;;;;;;4115151;28;20488;-80
2021/04/05 03:49:45;;;;;;;35.03;19.90;;;5.90;98.30;;;;;;4113911;28;20493;-80
2021/04/05 03:51:55;;;;;;;40.37;26.00;;;5.90;98.30;;;;;;4113563;28;20497;-80
2021/04/05 03:54:04;;;;;;;40.57;22.40;;;5.90;98.30;;;;;;4112887;28;20497;-80
2021/04/05 03:56:11;;;;;;;35.10;19.80;;;5.90;98.30;;;;;;4114642;28;20502;-80
2021/04/05 03:58:16;;;;;;;39.40;23.03;;;6.00;98.30;;;;;;4114594;28;20500;-80
2021/04/05 04:00:21;;;;;;;37.97;19.27;;;5.90;98.30;;;;;;4113948;28;20589;-80
2021/04/05 04:02:29;;;;;;;32.57;21.20;;;6.00;98.30;;;;;;4109710;28;20503;-80
2021/04/05 04:04:35;;;;;;;34.60;18.03;;;6.00;98.30;;;;;;4111326;28;20506;-79
2021/04/05 04:06:43;;;;;;;22.73;14.50;;;6.00;98.30;;;;;;4105583;28;20864;-80
2021/04/05 04:08:49;;;;;;;15.17;9.63;;;5.90;98.30;;;;;;4112217;28;20488;-80
2021/04/05 04:10:53;;;;;;;14.48;8.50;;;5.70;98.30;;;;;;4108891;28;20496;-80
2021/04/05 04:12:56;;;;;;;8.60;6.40;;;5.80;98.30;;;;;;4112768;28;20234;-80
2021/04/05 04:15:00;;;;;;;6.50;4.27;;;5.80;98.30;;;;;;4111511;28;21333;-80
2021/04/05 04:17:05;;;;;;;4.00;3.03;;;5.80;98.30;;;;;;4112634;28;20497;-80
2021/04/05 04:19:07;;;;;;;9.30;6.38;;;5.70;98.30;;;;;;4110006;28;20494;-80
2021/04/05 04:21:11;;;;;;;21.60;12.70;;;5.70;98.30;;;;;;4111910;28;20239;-80
2021/04/05 04:23:14;;;;;;;17.93;10.00;;;5.60;98.30;;;;;;4110484;28;20579;-80
2021/04/05 04:25:16;;;;;;;3.20;2.40;;;5.70;98.30;;;;;;4114528;28;20841;-80
2021/04/05 04:27:18;;;;;;;2.83;2.40;;;5.60;98.30;;;;;;4276336;23;20239;-80
2021/04/05 04:29:22;;;;;;;2.07;1.80;;;5.60;98.30;;;;;;4129883;28;20490;-81
2021/04/05 04:31:25;;;;;;;2.25;1.83;;;5.60;98.30;;;;;;4130050;28;20516;-81
2021/04/05 04:33:28;;;;;;;3.80;1.97;;;5.60;98.30;;;;;;4130773;28;20296;-80
2021/04/05 04:35:30;;;;;;;3.35;1.90;;;5.60;98.30;;;;;;4130069;28;20487;-81
2021/04/05 04:37:32;;;;;;;2.50;1.97;;;5.50;98.30;;;;;;4131979;28;20723;-81
2021/04/05 04:39:36;;;;;;;2.97;1.85;;;5.50;98.30;;;;;;4133740;28;20502;-80
2021/04/05 04:41:41;;;;;;;3.60;2.88;;;5.50;98.30;;;;;;4137452;28;20232;-81
2021/04/05 04:43:43;;;;;;;3.33;2.37;;;5.60;98.30;;;;;;4135258;28;20235;-79
2021/04/05 04:45:45;;;;;;;9.20;5.90;;;5.60;98.30;;;;;;4136092;28;20495;-81
2021/04/05 04:47:49;;;;;;;14.07;7.93;;;5.60;98.30;;;;;;4132198;28;20487;-80
2021/04/05 04:49:51;;;;;;;7.90;6.17;;;5.60;98.30;;;;;;4132356;28;20232;-80
2021/04/05 04:51:53;;;;;;;4.80;3.07;;;5.70;98.30;;;;;;4133658;28;20496;-80
2021/04/05 04:53:56;;;;;;;8.35;2.70;;;5.60;98.30;;;;;;4131847;28;20511;-80
2021/04/05 04:55:58;;;;;;;5.93;2.53;;;5.60;98.30;;;;;;4132224;28;20244;-81
2021/04/05 04:58:03;;;;;;;3.60;2.33;;;5.60;98.30;;;;;;4132933;28;20708;-80
2021/04/05 05:00:07;;;;;;;5.10;2.57;;;5.70;98.30;;;;;;4131877;28;20506;-80
2021/04/05 05:02:09;;;;;;;5.07;2.30;;;5.60;98.30;;;;;;4132965;28;20496;-81
2021/04/05 05:04:14;;;;;;;4.37;2.60;;;5.60;98.30;;;;;;4133114;28;20497;-81
2021/04/05 05:06:19;;;;;;;7.23;2.93;;;5.60;98.30;;;;;;4132127;28;20885;-81
2021/04/05 05:08:21;;;;;;;3.17;2.80;;;5.60;98.30;;;;;;4130576;28;20493;-81
2021/04/05 05:10:24;;;;;;;8.20;3.40;;;5.50;98.30;;;;;;4132130;28;20845;-81
2021/04/05 05:12:27;;;;;;;6.00;3.50;;;5.50;98.30;;;;;;4132949;28;20539;-78
2021/04/05 05:14:29;;;;;;;4.87;3.20;;;5.60;98.30;;;;;;4130908;28;20877;-80
2021/04/05 05:16:32;;;;;;;6.23;2.97;;;5.60;98.30;;;;;;4131815;28;20534;-80
2021/04/05 05:18:35;;;;;;;6.10;3.00;;;5.50;98.30;;;;;;4131920;28;20500;-79
2021/04/05 05:20:37;;;;;;;4.90;2.50;;;5.50;98.30;;;;;;4131669;28;20602;-79
2021/04/05 05:22:43;;;;;;;4.77;2.63;;;5.50;98.30;;;;;;4133523;28;21049;-78
2021/04/05 05:24:48;;;;;;;6.30;2.70;;;5.40;98.30;;;;;;4133239;28;20503;-81
2021/04/05 05:26:50;;;;;;;5.78;2.63;;;5.40;98.30;;;;;;4132566;28;20499;-80
2021/04/05 05:28:55;;;;;;;5.00;2.40;;;5.50;98.30;;;;;;4131949;28;20240;-81
2021/04/05 05:30:58;;;;;;;3.97;2.40;;;5.50;98.30;;;;;;4132781;28;20529;-80
2021/04/05 05:33:03;;;;;;;4.32;2.53;;;5.50;98.30;;;;;;4131687;28;20236;-80
2021/04/05 05:35:08;;;;;;;6.75;3.25;;;5.50;98.30;;;;;;4131766;28;20240;-81
2021/04/05 05:37:10;;;;;;;7.28;3.00;;;5.50;98.30;;;;;;4132017;28;20238;-80
2021/04/05 05:39:13;;;;;;;5.90;3.00;;;5.50;98.30;;;;;;4132079;28;20238;-79
2021/04/05 05:41:23;;;;;;;5.85;2.70;;;5.50;98.30;;;;;;4132287;28;20556;-80
2021/04/05 05:43:36;;;;;;;5.20;2.50;;;5.40;98.30;;;;;;4132364;28;20231;-80
2021/04/05 05:45:46;;;;;;;6.47;3.47;;;5.30;98.30;;;;;;4133419;28;20242;-80
2021/04/05 05:47:56;;;;;;;6.13;3.05;;;5.20;98.30;;;;;;4130688;28;20224;-79
2021/04/05 05:50:06;;;;;;;5.20;2.55;;;5.20;98.30;;;;;;4131753;28;20298;-79
2021/04/05 05:52:40;;;;;;;4.50;2.65;;;5.20;98.30;;;;;;4132985;28;20727;-79
2021/04/05 05:55:02;;;;;;;9.43;2.92;;;5.30;98.30;;;;;;4133790;28;20283;-81
2021/04/05 05:57:13;;;;;;;7.05;3.00;;;5.20;98.30;;;;;;4136161;28;20250;-80
2021/04/05 05:59:24;;;;;;;8.10;2.92;;;5.10;98.30;;;;;;4131630;28;20227;-80
2021/04/05 06:01:40;;;;;;;7.63;3.10;;;5.10;98.30;;;;;;4132628;28;20265;-80
2021/04/05 06:03:57;;;;;;;5.95;3.00;;;5.10;98.30;;;;;;4131900;28;20247;-79
2021/04/05 06:06:15;;;;;;;4.53;2.88;;;5.00;98.30;;;;;;4133064;28;20710;-79
2021/04/05 06:08:40;;;;;;;6.50;3.15;;;5.00;98.30;;;;;;4131028;28;20227;-81
2021/04/05 06:10:51;;;;;;;7.85;3.22;;;5.00;98.30;;;;;;4131020;28;20254;-80
2021/04/05 06:13:05;;;;;;;8.63;3.00;;;5.00;98.30;;;;;;4131740;28;20343;-80
2021/04/05 06:15:16;;;;;;;6.97;3.50;;;5.10;98.30;;;;;;4131847;28;20243;-79
2021/04/05 06:17:29;;;;;;;6.30;3.15;;;5.00;98.30;;;;;;4132182;28;20791;-80
2021/04/05 06:19:47;;;;;;;6.20;3.17;;;5.00;98.30;;;;;;4131007;28;20255;-81
2021/04/05 06:21:59;;;;;;;5.85;2.80;;;5.10;98.30;;;;;;4136132;28;20235;-77
2021/04/05 06:24:03;;;;;;;3.80;3.30;;;5.10;98.30;;;;;;4143399;28;20236;-78
2021/04/05 06:26:40;;;;;;;5.57;2.90;;;4.90;98.30;;;;;;4142201;28;20244;-77
2021/04/05 06:28:57;;;;;;;5.40;2.90;;;4.80;98.30;;;;;;4141750;28;20300;-78
2021/04/05 06:31:07;;;;;;;7.10;2.90;;;4.80;98.30;;;;;;4141007;28;20244;-77
2021/04/05 06:33:15;;;;;;;7.78;3.10;;;4.90;98.30;;;;;;4138616;28;20235;-78
2021/04/05 06:35:56;;;;;;;6.03;3.00;;;4.90;98.30;;;;;;4138995;28;20235;-80
2021/04/05 06:38:01;;;;;;;6.70;2.90;;;4.90;98.30;;;;;;4135127;28;20236;-80
2021/04/05 06:40:08;;;;;;;7.03;3.20;;;4.90;98.30;;;;;;4130582;28;20243;-80
2021/04/05 06:42:26;;;;;;;6.97;3.67;;;4.90;98.30;;;;;;4114778;28;20267;-80
2021/04/05 06:44:44;;;;;;;6.60;3.05;;;4.70;98.30;;;;;;4132209;28;20576;-81
2021/04/05 06:47:14;;;;;;;7.38;2.58;;;4.70;98.30;;;;;;4131753;28;20579;-80
2021/04/05 06:49:35;;;;;;;7.57;3.22;;;4.70;98.30;;;;;;4131181;28;20228;-80
2021/04/05 06:52:10;;;;;;;36.38;19.15;;;4.60;98.30;;;;;;4126732;28;20236;-80
2021/04/05 06:54:30;;;;;;;20.50;11.20;;;4.50;98.30;;;;;;4129605;28;20240;-81
2021/04/05 06:56:45;;;;;;;11.10;5.88;;;4.50;98.30;;;;;;4130992;28;20730;-80
2021/04/05 06:59:11;;;;;;;7.70;2.40;;;4.50;98.30;;;;;;4131163;28;20882;-80
2021/04/05 07:01:22;;;;;;;7.78;3.03;;;4.40;98.30;;;;;;4127008;28;20231;-80
2021/04/05 07:03:42;;;;;;;10.02;2.70;;;4.20;98.30;;;;;;4130836;28;20240;-79
2021/04/05 07:05:56;;;;;;;6.90;3.00;;;4.20;98.30;;;;;;4128885;28;20231;-79
2021/04/05 07:08:04;;;;;;;5.38;2.83;;;4.20;98.30;;;;;;4132424;28;20262;-79
2021/04/05 07:10:19;;;;;;;7.65;2.80;;;4.20;98.30;;;;;;4130507;28;20674;-79
2021/04/05 07:12:42;;;;;;;8.05;3.53;;;4.30;98.30;;;;;;4130736;28;20289;-79
2021/04/05 07:14:56;;;;;;;5.72;2.75;;;4.40;98.30;;;;;;4131862;28;20239;-80
2021/04/05 07:17:19;;;;;;;8.32;3.22;;;4.40;98.30;;;;;;4128753;28;20235;-79
2021/04/05 07:19:39;;;;;;;3.92;2.53;;;4.50;98.30;;;;;;4123158;28;20240;-79
2021/04/05 07:21:49;;;;;;;9.98;3.10;;;4.50;98.30;;;;;;4125956;28;20287;-81
2021/04/05 07:24:09;;;;;;;9.60;4.45;;;4.50;98.30;;;;;;4129284;28;20699;-80
2021/04/05 07:26:19;;;;;;;8.95;2.80;;;4.40;98.30;;;;;;4127739;28;20240;-81
2021/04/05 07:28:34;;;;;;;8.00;3.15;;;4.30;98.30;;;;;;4125408;28;20235;-80
2021/04/05 07:30:42;;;;;;;5.55;3.35;;;4.30;98.30;;;;;;4128946;28;20713;-79
2021/04/05 07:33:00;;;;;;;8.55;3.00;;;4.30;98.30;;;;;;4125817;28;20234;-80
2021/04/05 07:35:07;;;;;;;9.90;3.30;;;4.40;98.30;;;;;;4126553;28;20250;-78
2021/04/05 07:37:36;;;;;;;5.50;2.72;;;4.50;98.30;;;;;;4136615;28;20223;-79
2021/04/05 07:39:46;;;;;;;6.13;3.35;;;4.70;98.30;;;;;;4119292;28;20274;-78
2021/04/05 07:41:53;;;;;;;12.25;3.40;;;4.90;98.30;;;;;;4129324;28;20239;-79
2021/04/05 07:44:10;;;;;;;10.90;3.63;;;4.80;98.30;;;;;;4129258;28;20319;-78
2021/04/05 07:46:33;;;;;;;3.80;2.40;;;4.60;98.30;;;;;;4129118;28;21177;-78
2021/04/05 07:48:39;;;;;;;3.38;1.98;;;4.30;98.30;;;;;;4113075;28;20229;-78
2021/04/05 07:50:50;;;;;;;7.65;2.67;;;4.10;98.30;;;;;;4125097;28;20247;-80
2021/04/05 07:52:58;;;;;;;7.78;3.97;;;4.20;98.30;;;;;;4129027;28;20239;-79
2021/04/05 07:55:04;;;;;;;6.13;2.40;;;4.30;98.30;;;;;;4129170;28;20350;-80
2021/04/05 07:57:11;;;;;;;5.65;2.70;;;4.40;98.30;;;;;;4128848;28;20239;-80
2021/04/05 07:59:21;;;;;;;8.23;3.20;;;4.50;98.30;;;;;;4128061;28;20271;-79
2021/04/05 08:01:27;;;;;;;3.63;2.40;;;4.90;98.30;;;;;;4128787;28;20235;-79
2021/04/05 08:03:43;;;;;;;9.43;2.97;;;5.00;98.30;;;;;;4128107;28;20235;-79
2021/04/05 08:05:56;;;;;;;7.43;2.95;;;5.10;98.30;;;;;;4128024;28;20242;-79
2021/04/05 08:08:21;;;;;;;8.43;2.67;;;5.30;98.30;;;;;;4130742;28;20235;-80
2021/04/05 08:10:30;;;;;;;4.05;2.10;;;5.10;98.30;;;;;;4132332;28;20239;-78
2021/04/05 08:12:40;;;;;;;4.70;2.40;;;4.70;98.30;;;;;;4130606;28;20232;-80
2021/04/05 08:14:50;;;;;;;4.30;2.20;;;4.50;98.30;;;;;;4130940;28;20229;-79
2021/04/05 08:17:02;;;;;;;2.95;2.22;;;4.30;98.30;;;;;;4131662;28;20224;-79
2021/04/05 08:19:17;;;;;;;3.15;2.00;;;4.30;98.30;;;;;;4129461;28;20232;-80
2021/04/05 08:21:23;;;;;;;2.72;2.10;;;4.40;98.30;;;;;;4128338;28;20235;-79
2021/04/05 08:23:39;;;;;;;2.58;1.80;;;4.50;98.30;;;;;;4130496;28;20242;-79
2021/04/05 08:25:56;;;;;;;4.10;1.95;;;4.50;98.30;;;;;;4132193;28;20468;-79
2021/04/05 08:28:09;;;;;;;3.55;1.90;;;4.70;98.30;;;;;;4131477;28;20243;-79
2021/04/05 08:30:21;;;;;;;2.17;1.50;;;4.80;98.30;;;;;;4130590;28;20238;-79
2021/04/05 08:32:38;;;;;;;1.75;1.50;;;4.60;98.30;;;;;;4130167;28;20266;-78
2021/04/05 08:34:54;;;;;;;4.63;2.03;;;4.70;98.30;;;;;;4132506;28;20680;-77
2021/04/05 08:37:11;;;;;;;1.92;1.50;;;4.70;98.30;;;;;;4130980;28;20852;-79
2021/04/05 08:39:20;;;;;;;1.65;1.40;;;4.70;98.30;;;;;;4133706;28;20609;-79
2021/04/05 08:41:32;;;;;;;2.22;1.65;;;4.70;98.30;;;;;;4131915;28;20246;-77
2021/04/05 08:43:42;;;;;;;3.00;1.70;;;4.60;98.30;;;;;;4129935;28;20259;-79
2021/04/05 08:45:46;;;;;;;2.05;1.65;;;4.40;98.30;;;;;;4133788;28;20314;-81
2021/04/05 08:47:52;;;;;;;2.70;1.73;;;4.30;98.30;;;;;;4132674;28;20307;-80
2021/04/05 08:49:58;;;;;;;6.88;2.40;;;4.30;98.30;;;;;;4134828;28;20673;-80
2021/04/05 08:52:05;;;;;;;2.60;2.00;;;4.20;98.30;;;;;;4133930;28;20238;-80
2021/04/05 08:54:08;;;;;;;4.10;2.20;;;4.10;98.30;;;;;;4133483;28;20337;-80
2021/04/05 08:56:12;;;;;;;5.55;2.60;;;4.10;98.30;;;;;;4132004;28;20235;-79
2021/04/05 08:58:27;;;;;;;4.95;2.33;;;4.40;98.30;;;;;;4131670;28;20768;-79
2021/04/05 09:00:31;;;;;;;3.53;2.30;;;4.70;98.30;;;;;;4128688;28;20774;-78
2021/04/05 09:02:37;;;;;;;5.00;2.10;;;4.90;98.30;;;;;;4131307;28;20232;-79
2021/04/05 09:04:43;;;;;;;4.22;2.25;;;5.10;98.30;;;;;;4130671;28;20231;-80
2021/04/05 09:06:57;;;;;;;5.53;2.83;;;5.30;98.30;;;;;;4131529;28;20234;-79
2021/04/05 09:09:02;;;;;;;5.15;2.17;;;5.40;98.30;;;;;;4130390;28;20605;-79
2021/04/05 09:11:05;;;;;;;6.93;3.27;;;5.40;98.30;;;;;;4130598;28;20232;-78
2021/04/05 09:13:12;;;;;;;8.57;3.47;;;5.60;98.30;;;;;;4125544;28;21056;-79
2021/04/05 09:15:52;;;;;;;13.38;5.60;;;5.50;98.30;;;;;;4134490;28;20264;-80
2021/04/05 09:18:12;;;;;;;10.93;4.50;;;5.60;98.30;;;;;;4132027;28;20225;-79
2021/04/05 09:20:44;;;;;;;4.27;2.80;;;5.90;98.30;;;;;;4132426;28;20626;-78
2021/04/05 09:23:33;;;;;;;6.10;3.00;;;6.30;98.30;;;;;;4127313;28;20489;-80
2021/04/05 09:25:52;;;;;;;4.87;2.80;;;6.50;98.30;;;;;;4126727;28;21176;-79
2021/04/05 09:28:11;;;;;;;5.83;2.80;;;6.40;98.30;;;;;;4128426;28;20580;-80
2021/04/05 09:30:43;;;;;;;8.97;2.30;;;6.60;98.30;;;;;;4132488;28;20505;-79
2021/04/05 09:33:00;;;;;;;6.50;2.87;;;6.90;98.30;;;;;;4142831;28;20550;-78
2021/04/05 09:35:32;;;;;;;13.20;3.10;;;6.90;97.10;;;;;;4143788;28;20927;-78
2021/04/05 09:37:55;;;;;;;9.37;3.37;;;6.90;97.20;;;;;;4142603;28;20608;-78
2021/04/05 09:40:34;;;;;;;7.07;3.00;;;6.90;96.50;;;;;;4143749;28;20924;-80
2021/04/05 09:43:08;;;;;;;6.57;3.17;;;7.00;94.50;;;;;;4143662;28;20606;-79
2021/04/05 09:45:14;;;;;;;7.43;3.70;;;7.00;92.70;;;;;;4141942;28;20486;-79
2021/04/05 09:47:33;;;;;;;22.40;10.97;;;7.30;92.80;;;;;;4132467;28;20494;-79
2021/04/05 09:49:48;;;;;;;9.57;4.23;;;7.70;92.80;;;;;;4132271;28;20485;-80
2021/04/05 09:51:58;;;;;;;8.13;3.70;;;7.90;88.80;;;;;;4133718;28;20494;-80
2021/04/05 09:54:07;;;;;;;5.87;3.13;;;7.80;85.70;;;;;;4132551;28;20492;-81
2021/04/05 09:56:11;;;;;;;21.23;8.60;;;7.80;85.70;;;;;;4127750;28;20561;-81
2021/04/05 09:58:18;;;;;;;7.80;4.20;;;7.90;85.70;;;;;;4134093;28;21123;-80
2021/04/05 10:00:21;;;;;;;16.47;6.83;;;7.90;85.70;;;;;;4133361;28;20502;-79
2021/04/05 10:02:31;;;;;;;9.40;4.30;;;7.60;84.10;;;;;;4132236;28;20505;-80
2021/04/05 10:04:35;;;;;;;5.80;2.40;;;7.40;83.30;;;;;;4132319;28;20497;-80
2021/04/05 10:06:38;;;;;;;6.37;2.57;;;7.10;82.10;;;;;;4132806;28;20512;-79
2021/04/05 10:08:42;;;;;;;4.50;2.60;;;7.00;80.50;;;;;;4131208;28;20498;-80
2021/04/05 10:10:46;;;;;;;2.60;2.20;;;7.10;79.40;;;;;;4131123;28;20894;-80
2021/04/05 10:12:49;;;;;;;4.33;2.47;;;7.00;76.80;;;;;;4128680;28;21012;-82
2021/04/05 10:14:51;;;;;;;7.23;2.00;;;7.20;75.40;;;;;;4132473;28;20495;-82
2021/04/05 10:16:55;;;;;;;10.63;2.73;;;7.20;74.30;;;;;;4120928;28;20489;-80
2021/04/05 10:19:01;;;;;;;6.03;2.53;;;7.50;77.40;;;;;;4133174;28;20505;-80
2021/04/05 10:21:06;;;;;;;9.53;4.87;;;7.90;74.90;;;;;;4133522;28;20500;-81
2021/04/05 10:23:09;;;;;;;11.77;6.60;;;8.10;74.10;;;;;;4137308;28;20491;-81
2021/04/05 10:25:14;;;;;;;4.83;3.23;;;8.10;71.00;;;;;;4132814;28;20637;-82
2021/04/05 10:27:19;;;;;;;6.83;2.70;;;8.10;70.20;;;;;;4135409;28;20490;-82
2021/04/05 10:29:24;;;;;;;7.53;2.90;;;8.00;69.70;;;;;;4131415;28;20479;-81
2021/04/05 10:31:27;;;;;;;7.30;3.17;;;8.30;70.90;;;;;;4130175;28;20497;-82
2021/04/05 10:33:31;;;;;;;5.83;3.10;;;8.50;70.70;;;;;;4132031;28;20493;-80
2021/04/05 10:35:38;;;;;;;5.10;2.80;;;8.50;69.40;;;;;;4130056;28;20494;-81
2021/04/05 10:37:43;;;;;;;7.17;2.40;;;8.50;69.00;;;;;;4129206;28;21229;-82
2021/04/05 10:39:50;;;;;;;9.70;2.93;;;8.30;70.60;;;;;;4130853;28;20503;-79
2021/04/05 10:41:58;;;;;;;5.27;2.30;;;8.30;71.20;;;;;;4129035;28;20552;-80
2021/04/05 10:44:06;;;;;;;6.97;3.17;;;8.00;73.30;;;;;;4130205;28;20853;-80
2021/04/05 10:46:15;;;;;;;8.20;2.50;;;7.80;75.70;;;;;;4130479;28;20501;-80
2021/04/05 10:48:21;;;;;;;10.50;2.90;;;8.20;77.10;;;;;;4131862;28;20868;-81
2021/04/05 10:50:28;;;;;;;8.27;2.80;;;8.70;77.20;;;;;;4129049;28;20491;-80
2021/04/05 10:52:39;;;;;;;5.33;2.70;;;9.20;76.60;;;;;;4130590;28;20490;-80
2021/04/05 10:54:46;;;;;;;29.90;15.70;;;9.10;75.70;;;;;;4129228;28;20910;-81
2021/04/05 10:56:53;;;;;;;5.50;3.50;;;9.10;76.80;;;;;;4131840;28;20531;-81
2021/04/05 10:59:22;;;;;;;11.60;4.20;;;9.30;75.50;;;;;;4129250;28;20478;-80
2021/04/05 11:01:25;;;;;;;6.70;2.63;;;9.40;72.80;;;;;;4130627;28;20572;-78
2021/04/05 11:03:28;;;;;;;5.10;2.23;;;9.60;68.30;;;;;;4130085;28;21051;-81
2021/04/05 11:05:35;;;;;;;5.33;2.20;;;9.80;67.70;;;;;;4130407;28;20474;-80
2021/04/05 11:07:45;;;;;;;7.40;2.70;;;9.80;67.80;;;;;;4130468;28;20457;-81